Time;durP1;ratioP1;P1;durP2;ratioP2;P2;SDS_P1;SDS_P2;PMS_P1;PMS_P2;Temp;Humidity;BMP_temperature;BMP_pressure;BME280_temperature;BME280_humidity;BME280_pressure;Samples;Min_cycle;Max_cycle;Signal;HPM_P1;HPM_P2
2022/10/23 00:01:26;;;;;;;9.57;4.07;;;18.80;99.90;;;;;;5091994;28;20077;-66
2022/10/23 00:03:59;;;;;;;8.45;3.80;;;19.00;99.90;;;;;;5096079;28;20535;-66
2022/10/23 00:06:26;;;;;;;12.82;4.07;;;18.90;99.90;;;;;;5095994;28;20443;-67
2022/10/23 00:08:52;;;;;;;10.02;4.35;;;18.80;99.90;;;;;;5095613;28;20425;-66
2022/10/23 00:11:21;;;;;;;8.68;3.85;;;18.70;99.90;;;;;;5095995;28;20032;-67
2022/10/23 00:13:48;;;;;;;9.25;3.92;;;18.80;99.90;;;;;;5095988;28;20043;-67
2022/10/23 00:16:14;;;;;;;13.13;4.18;;;18.90;99.90;;;;;;5095819;28;20448;-67
2022/10/23 00:18:39;;;;;;;12.18;4.07;;;18.90;99.90;;;;;;5095851;28;20024;-66
2022/10/23 00:21:08;;;;;;;9.77;4.30;;;19.00;99.90;;;;;;5095863;28;20105;-67
2022/10/23 00:23:33;;;;;;;10.38;3.78;;;18.70;99.90;;;;;;5095717;28;20036;-67
2022/10/23 00:25:59;;;;;;;9.35;3.72;;;18.70;99.90;;;;;;5095778;28;20016;-66
2022/10/23 00:28:25;;;;;;;8.27;3.70;;;18.50;99.90;;;;;;5095758;28;20169;-67
2022/10/23 00:30:51;;;;;;;12.30;4.07;;;18.40;99.90;;;;;;5095514;28;20024;-67
2022/10/23 00:33:17;;;;;;;8.40;3.33;;;18.40;99.90;;;;;;5095595;28;20032;-67
2022/10/23 00:35:43;;;;;;;10.45;4.18;;;18.20;99.90;;;;;;5095798;28;20023;-66
2022/10/23 00:38:11;;;;;;;10.63;4.10;;;18.10;99.90;;;;;;5094943;28;20481;-67
2022/10/23 00:40:37;;;;;;;8.50;3.92;;;18.10;99.90;;;;;;5095145;28;20040;-67
2022/10/23 00:43:03;;;;;;;6.70;3.55;;;18.00;99.90;;;;;;5095211;28;20089;-66
2022/10/23 00:45:32;;;;;;;9.20;4.20;;;17.80;99.90;;;;;;5095275;28;20020;-67
2022/10/23 00:48:01;;;;;;;8.10;3.83;;;17.70;99.90;;;;;;5095226;28;20024;-67
2022/10/23 00:50:29;;;;;;;9.18;4.05;;;17.40;99.90;;;;;;5095552;28;20036;-67
2022/10/23 00:52:58;;;;;;;9.32;3.70;;;17.50;99.90;;;;;;5094619;28;20024;-67
2022/10/23 00:55:25;;;;;;;8.98;4.15;;;17.60;99.90;;;;;;5095124;28;20036;-67
2022/10/23 00:57:52;;;;;;;11.02;3.90;;;17.40;99.90;;;;;;5095354;28;20031;-66
2022/10/23 01:00:24;;;;;;;8.75;3.97;;;17.20;99.90;;;;;;5095003;28;20482;-66
2022/10/23 01:02:50;;;;;;;11.00;4.13;;;17.00;99.90;;;;;;5094856;28;20078;-66
2022/10/23 01:05:17;;;;;;;8.82;4.03;;;16.90;99.90;;;;;;5094782;28;20027;-67
2022/10/23 01:07:49;;;;;;;11.30;4.35;;;17.00;99.90;;;;;;5094794;28;20474;-67
2022/10/23 01:10:36;;;;;;;9.93;4.10;;;17.00;99.90;;;;;;5094471;28;20425;-67
2022/10/23 01:13:07;;;;;;;9.18;4.15;;;17.00;99.90;;;;;;5094533;28;20029;-67
2022/10/23 01:15:38;;;;;;;8.00;4.20;;;16.90;99.90;;;;;;5094414;28;20482;-67
2022/10/23 01:18:11;;;;;;;6.63;3.75;;;16.90;99.90;;;;;;5094509;28;20028;-67
2022/10/23 01:20:54;;;;;;;9.88;4.00;;;17.40;99.90;;;;;;5094351;28;20075;-67
2022/10/23 01:23:42;;;;;;;10.18;4.20;;;17.10;99.90;;;;;;5094445;28;20028;-67
2022/10/23 01:26:36;;;;;;;8.38;4.38;;;17.30;99.90;;;;;;5094792;28;20391;-67
2022/10/23 01:29:03;;;;;;;;;;;17.30;99.90;;;;;;5094883;28;20062;-67
2022/10/23 01:31:41;;;;;;;10.25;4.00;;;17.20;99.90;;;;;;5094567;28;20427;-66
2022/10/23 01:34:33;;;;;;;7.22;3.70;;;17.40;99.90;;;;;;5094291;28;20028;-66
2022/10/23 01:37:01;;;;;;;7.28;3.80;;;17.50;99.90;;;;;;5093994;28;20024;-66
2022/10/23 01:39:33;;;;;;;9.50;3.63;;;17.50;99.90;;;;;;5094035;28;20054;-66
2022/10/23 01:42:05;;;;;;;9.48;4.13;;;17.30;99.90;;;;;;5094307;28;20016;-68
2022/10/23 01:44:42;;;;;;;7.70;3.60;;;17.40;99.90;;;;;;5094524;28;20450;-68
2022/10/23 01:47:10;;;;;;;6.60;3.60;;;17.50;99.90;;;;;;5094505;28;20509;-67
2022/10/23 01:49:38;;;;;;;11.30;4.20;;;17.40;99.90;;;;;;5093878;28;20024;-67
2022/10/23 01:52:09;;;;;;;8.55;3.70;;;17.40;99.90;;;;;;5093601;28;20540;-68
2022/10/23 01:54:39;;;;;;;10.65;4.20;;;17.40;99.90;;;;;;5094202;28;20494;-67
2022/10/23 01:57:09;;;;;;;9.73;3.92;;;17.60;99.90;;;;;;5093916;28;20053;-67
2022/10/23 01:59:40;;;;;;;10.35;4.32;;;17.60;99.90;;;;;;5093899;28;20035;-67
2022/10/23 02:02:08;;;;;;;9.30;3.92;;;17.60;99.90;;;;;;5094216;28;20024;-67
2022/10/23 02:04:57;;;;;;;8.10;3.70;;;17.60;99.90;;;;;;5093616;28;20031;-67
2022/10/23 02:07:23;;;;;;;8.30;3.60;;;17.90;99.90;;;;;;5085883;28;20032;-67
2022/10/23 02:09:49;;;;;;;9.15;3.58;;;18.00;99.90;;;;;;5093658;28;20086;-67
2022/10/23 02:12:44;;;;;;;8.88;4.20;;;17.70;99.90;;;;;;5093692;28;20486;-67
2022/10/23 02:15:35;;;;;;;9.88;3.50;;;17.90;99.90;;;;;;5093874;28;20028;-67
2022/10/23 02:18:03;;;;;;;11.18;3.72;;;18.00;99.90;;;;;;5093444;28;20089;-67
2022/10/23 02:20:31;;;;;;;8.10;3.70;;;18.00;99.90;;;;;;5093455;28;20107;-67
2022/10/23 02:23:04;;;;;;;8.00;4.10;;;18.10;99.90;;;;;;5093509;28;20089;-67
2022/10/23 02:25:38;;;;;;;9.50;3.88;;;18.10;99.90;;;;;;5093427;28;20028;-67
2022/10/23 02:28:09;;;;;;;8.48;3.97;;;18.00;99.90;;;;;;5093255;28;20494;-67
2022/10/23 02:30:40;;;;;;;11.30;3.70;;;18.10;99.90;;;;;;5093510;28;20035;-67
2022/10/23 02:33:07;;;;;;;8.63;3.70;;;18.00;99.90;;;;;;5093259;28;20016;-67
2022/10/23 02:35:33;;;;;;;6.13;3.53;;;18.00;99.90;;;;;;5092652;28;20032;-67
2022/10/23 02:38:00;;;;;;;7.82;3.55;;;17.90;99.90;;;;;;5093182;28;20092;-67
2022/10/23 02:40:37;;;;;;;12.68;4.47;;;18.10;99.90;;;;;;5092945;28;20048;-67
2022/10/23 02:43:22;;;;;;;8.30;3.63;;;18.00;99.90;;;;;;5093240;28;20020;-67
2022/10/23 02:46:10;;;;;;;6.70;3.60;;;18.10;99.90;;;;;;5093457;28;20401;-67
2022/10/23 02:48:56;;;;;;;6.32;3.45;;;18.00;99.90;;;;;;5092646;28;20421;-67
2022/10/23 02:51:36;;;;;;;10.73;3.80;;;17.90;99.90;;;;;;5092703;28;20032;-68
2022/10/23 02:54:09;;;;;;;7.68;3.30;;;17.70;99.90;;;;;;5092840;28;20039;-67
2022/10/23 02:57:00;;;;;;;8.02;3.63;;;17.70;99.90;;;;;;5092626;28;20092;-67
2022/10/23 02:59:40;;;;;;;8.50;4.00;;;17.70;99.90;;;;;;5093046;28;20370;-67
2022/10/23 03:02:16;;;;;;;8.30;3.67;;;17.60;99.90;;;;;;5092615;28;20052;-67
2022/10/23 03:04:43;;;;;;;8.60;3.58;;;17.50;99.90;;;;;;5092194;28;20398;-67
2022/10/23 03:07:18;;;;;;;6.25;3.65;;;17.40;99.90;;;;;;5092444;28;20109;-67
2022/10/23 03:09:44;;;;;;;6.72;3.67;;;17.30;99.90;;;;;;5092923;28;20461;-67
2022/10/23 03:12:09;;;;;;;10.77;3.60;;;17.30;99.90;;;;;;5092467;28;20027;-67
2022/10/23 03:14:35;;;;;;;8.05;3.60;;;17.20;99.90;;;;;;5092367;28;20032;-67
2022/10/23 03:17:02;;;;;;;10.60;3.70;;;17.40;99.90;;;;;;5092293;28;20032;-67
2022/10/23 03:19:27;;;;;;;9.18;3.95;;;17.10;99.90;;;;;;5092382;28;20024;-67
2022/10/23 03:21:53;;;;;;;7.35;3.83;;;17.00;99.90;;;;;;5092427;28;20035;-67
2022/10/23 03:24:19;;;;;;;9.82;3.40;;;17.10;99.90;;;;;;5092477;28;20027;-67
2022/10/23 03:26:44;;;;;;;8.85;3.45;;;17.10;99.90;;;;;;5092662;28;20028;-67
2022/10/23 03:29:10;;;;;;;7.80;3.55;;;17.20;99.90;;;;;;5092205;28;20028;-67
2022/10/23 03:31:36;;;;;;;9.80;3.90;;;17.10;99.90;;;;;;5092224;28;20036;-67
2022/10/23 03:34:01;;;;;;;5.63;3.58;;;17.10;99.90;;;;;;5091727;28;20020;-67
2022/10/23 03:36:27;;;;;;;10.43;4.15;;;16.90;99.90;;;;;;5092276;28;20095;-67
2022/10/23 03:38:52;;;;;;;11.60;3.80;;;16.80;99.90;;;;;;5092008;28;20036;-68
2022/10/23 03:41:18;;;;;;;7.82;3.67;;;16.60;99.90;;;;;;5092067;28;20036;-67
2022/10/23 03:43:44;;;;;;;8.40;4.18;;;16.40;99.90;;;;;;5092571;28;20028;-67
2022/10/23 03:46:11;;;;;;;6.95;3.92;;;16.70;99.90;;;;;;5091604;28;20039;-67
2022/10/23 03:48:37;;;;;;;8.35;4.30;;;16.40;99.90;;;;;;5092102;28;20120;-67
2022/10/23 03:51:06;;;;;;;10.52;3.72;;;16.30;99.90;;;;;;5092142;28;20514;-67
2022/10/23 03:53:32;;;;;;;9.88;4.03;;;16.30;99.90;;;;;;5092027;28;20020;-67
2022/10/23 03:55:58;;;;;;;10.65;4.10;;;16.50;99.90;;;;;;5092003;28;20069;-67
2022/10/23 03:58:24;;;;;;;8.13;3.65;;;16.60;99.90;;;;;;5091956;28;20028;-68
2022/10/23 04:00:49;;;;;;;10.05;4.07;;;16.90;99.90;;;;;;5091781;28;20028;-67
2022/10/23 04:03:15;;;;;;;8.85;3.72;;;16.50;99.90;;;;;;5091889;28;20028;-67
2022/10/23 04:05:41;;;;;;;10.02;3.67;;;17.00;99.90;;;;;;5091901;28;20514;-67
2022/10/23 04:08:08;;;;;;;10.15;3.90;;;16.90;99.90;;;;;;5091885;28;20024;-67
2022/10/23 04:10:33;;;;;;;9.52;3.88;;;16.30;99.90;;;;;;5091775;28;20086;-67
2022/10/23 04:12:59;;;;;;;6.53;3.50;;;16.90;99.90;;;;;;5092303;28;20525;-67
2022/10/23 04:15:25;;;;;;;10.52;4.20;;;17.00;99.90;;;;;;5091347;28;20103;-67
2022/10/23 04:17:50;;;;;;;8.32;3.65;;;16.70;99.90;;;;;;5091855;28;20389;-67
2022/10/23 04:20:16;;;;;;;9.68;3.40;;;17.00;99.90;;;;;;5091906;28;20028;-67
2022/10/23 04:22:42;;;;;;;10.25;3.53;;;16.90;99.90;;;;;;5092021;28;20054;-67
2022/10/23 04:25:08;;;;;;;10.00;3.70;;;16.80;99.90;;;;;;5091747;28;20039;-67
2022/10/23 04:27:34;;;;;;;8.50;3.65;;;16.80;99.90;;;;;;5091625;28;20020;-67
2022/10/23 04:30:00;;;;;;;7.60;3.45;;;16.70;99.90;;;;;;5091063;28;20043;-67
2022/10/23 04:32:26;;;;;;;6.50;2.97;;;16.80;99.90;;;;;;5091454;28;20020;-67
2022/10/23 04:34:52;;;;;;;8.80;3.75;;;16.70;99.90;;;;;;5091649;28;20032;-67
2022/10/23 04:37:17;;;;;;;9.20;3.67;;;16.90;99.90;;;;;;5091522;28;20030;-67
2022/10/23 04:39:43;;;;;;;8.13;3.70;;;17.00;99.90;;;;;;5091388;28;20040;-68
2022/10/23 04:42:09;;;;;;;9.77;3.42;;;16.60;99.90;;;;;;5091536;28;20134;-67
2022/10/23 04:44:34;;;;;;;9.15;3.53;;;16.50;99.90;;;;;;5091239;28;20020;-67
2022/10/23 04:47:00;;;;;;;6.32;3.40;;;16.40;99.90;;;;;;5091905;28;20509;-67
2022/10/23 04:49:26;;;;;;;7.13;3.50;;;16.60;99.90;;;;;;5093251;28;20032;-67
2022/10/23 04:51:51;;;;;;;9.60;3.85;;;16.60;99.90;;;;;;5095384;28;20099;-67
2022/10/23 04:54:17;;;;;;;9.57;3.67;;;16.60;99.90;;;;;;5095094;28;20025;-67
2022/10/23 04:56:43;;;;;;;8.52;3.72;;;16.80;99.90;;;;;;5093708;28;20517;-67
2022/10/23 04:59:08;;;;;;;13.73;3.72;;;16.80;99.90;;;;;;5094630;28;20032;-67
2022/10/23 05:01:35;;;;;;;10.25;3.90;;;16.90;99.90;;;;;;5095353;28;20107;-67
2022/10/23 05:04:00;;;;;;;11.15;4.28;;;16.90;99.90;;;;;;5094901;28;20035;-67
2022/10/23 05:06:26;;;;;;;8.23;3.42;;;16.80;99.90;;;;;;5094858;28;20020;-67
2022/10/23 05:08:52;;;;;;;11.25;4.07;;;16.70;99.90;;;;;;5095227;28;20020;-67
2022/10/23 05:11:17;;;;;;;7.53;3.53;;;16.90;99.90;;;;;;5094674;28;20516;-67
2022/10/23 05:13:43;;;;;;;11.18;4.13;;;16.90;99.90;;;;;;5094330;28;20036;-67
2022/10/23 05:16:09;;;;;;;6.95;3.67;;;16.90;99.90;;;;;;5094629;28;20024;-67
2022/10/23 05:18:39;;;;;;;10.13;3.83;;;17.00;99.90;;;;;;5094685;28;20016;-68
2022/10/23 05:21:10;;;;;;;9.02;3.75;;;17.00;99.90;;;;;;5095150;28;20379;-67
2022/10/23 05:23:39;;;;;;;7.85;3.42;;;17.00;99.90;;;;;;5094649;28;20494;-67
2022/10/23 05:26:05;;;;;;;11.05;4.28;;;17.00;99.90;;;;;;5094497;28;20024;-67
2022/10/23 05:28:31;;;;;;;9.32;4.10;;;16.90;99.90;;;;;;5093915;28;20039;-67
2022/10/23 05:31:01;;;;;;;9.40;3.75;;;17.00;99.90;;;;;;5094402;28;20111;-67
2022/10/23 05:33:27;;;;;;;8.40;3.60;;;17.00;99.90;;;;;;5094788;28;20020;-67
2022/10/23 05:35:53;;;;;;;10.43;4.20;;;17.00;99.90;;;;;;5092890;28;20413;-67
2022/10/23 05:38:18;;;;;;;9.02;4.25;;;16.80;99.90;;;;;;5094133;28;20058;-67
2022/10/23 05:40:44;;;;;;;11.27;4.38;;;16.80;99.90;;;;;;5093953;28;20094;-66
2022/10/23 05:43:10;;;;;;;12.73;4.55;;;16.80;99.90;;;;;;5093801;28;20077;-66
2022/10/23 05:45:35;;;;;;;9.55;3.80;;;16.90;99.90;;;;;;5094248;28;20079;-67
2022/10/23 05:48:01;;;;;;;13.52;4.20;;;16.80;99.90;;;;;;5093942;28;20044;-66
2022/10/23 05:50:27;;;;;;;12.63;3.90;;;16.90;99.90;;;;;;5093169;28;20514;-67
2022/10/23 05:52:52;;;;;;;8.30;4.38;;;16.90;99.90;;;;;;5093659;28;20379;-66
2022/10/23 05:55:18;;;;;;;9.30;4.10;;;17.00;99.90;;;;;;5093629;28;20032;-68
2022/10/23 05:57:44;;;;;;;11.85;4.38;;;16.90;99.90;;;;;;5093246;28;20032;-67
2022/10/23 06:00:10;;;;;;;9.63;3.92;;;16.90;99.90;;;;;;5092262;28;20453;-67
2022/10/23 06:02:36;;;;;;;8.65;3.92;;;17.00;99.90;;;;;;5093844;28;20032;-67
2022/10/23 06:05:02;;;;;;;10.20;4.35;;;16.90;99.90;;;;;;5094064;28;20081;-67
2022/10/23 06:07:29;;;;;;;8.82;4.00;;;17.00;99.90;;;;;;5093425;28;20028;-66
2022/10/23 06:09:55;;;;;;;9.80;4.13;;;16.90;99.90;;;;;;5093331;28;20036;-67
2022/10/23 06:12:21;;;;;;;13.55;4.38;;;16.90;99.90;;;;;;5093422;28;20107;-65
2022/10/23 06:14:47;;;;;;;11.65;4.00;;;17.00;99.90;;;;;;5093518;28;20024;-67
2022/10/23 06:17:14;;;;;;;11.20;3.90;;;17.00;99.90;;;;;;5093529;28;20024;-68
2022/10/23 06:19:40;;;;;;;11.07;4.50;;;17.20;99.90;;;;;;5094085;28;20028;-67
2022/10/23 06:22:05;;;;;;;12.45;4.10;;;17.20;99.90;;;;;;5093498;28;20031;-67
2022/10/23 06:24:31;;;;;;;11.27;3.90;;;17.30;99.90;;;;;;5093559;28;20028;-67
2022/10/23 06:26:57;;;;;;;9.25;3.92;;;17.20;99.90;;;;;;5092983;28;20027;-67
2022/10/23 06:29:22;;;;;;;9.40;4.20;;;17.20;99.90;;;;;;5093089;28;20031;-67
2022/10/23 06:31:48;;;;;;;10.75;4.35;;;17.20;99.90;;;;;;5093454;28;20196;-67
2022/10/23 06:34:14;;;;;;;8.55;4.10;;;17.10;99.90;;;;;;5093381;28;20020;-67
2022/10/23 06:36:40;;;;;;;10.57;3.78;;;17.10;99.90;;;;;;5093134;28;20444;-67
2022/10/23 06:39:07;;;;;;;10.25;4.10;;;17.20;99.90;;;;;;5093065;28;20040;-67
2022/10/23 06:41:32;;;;;;;8.90;3.80;;;17.20;99.90;;;;;;5093038;28;20024;-67
2022/10/23 06:43:58;;;;;;;7.20;3.75;;;17.40;99.90;;;;;;5092592;28;20380;-67
2022/10/23 06:46:25;;;;;;;9.05;3.78;;;17.30;99.90;;;;;;5093453;28;20444;-67
2022/10/23 06:48:52;;;;;;;9.35;3.88;;;17.40;99.90;;;;;;5092978;28;20034;-67
2022/10/23 06:51:18;;;;;;;7.93;3.88;;;17.40;99.90;;;;;;5092801;28;20070;-67
2022/10/23 06:53:44;;;;;;;10.75;3.92;;;17.40;99.90;;;;;;5093104;28;20044;-67
2022/10/23 06:56:11;;;;;;;7.32;3.70;;;17.50;99.90;;;;;;5092476;28;20028;-67
2022/10/23 06:58:38;;;;;;;10.23;3.78;;;17.60;99.90;;;;;;5093131;28;20103;-67
2022/10/23 07:01:07;;;;;;;8.35;3.75;;;17.60;99.90;;;;;;5092849;28;20055;-67
2022/10/23 07:03:33;;;;;;;6.88;3.42;;;17.60;99.90;;;;;;5092498;28;20020;-67
2022/10/23 07:06:03;;;;;;;8.25;3.40;;;17.70;99.90;;;;;;5092847;28;20314;-67
2022/10/23 07:08:29;;;;;;;8.70;3.35;;;17.70;99.90;;;;;;5092637;28;20095;-68
2022/10/23 07:10:55;;;;;;;9.43;3.53;;;17.70;99.90;;;;;;5091885;28;20039;-67
2022/10/23 07:13:23;;;;;;;8.35;3.50;;;17.80;99.90;;;;;;5092558;28;20020;-67
2022/10/23 07:15:49;;;;;;;9.50;3.63;;;17.90;99.90;;;;;;5092604;28;20024;-67
2022/10/23 07:18:15;;;;;;;9.65;3.30;;;17.80;99.90;;;;;;5092443;28;20109;-67
2022/10/23 07:20:42;;;;;;;8.35;3.30;;;18.10;99.90;;;;;;5092416;28;20109;-67
2022/10/23 07:23:10;;;;;;;8.02;3.20;;;18.10;99.90;;;;;;5092502;28;20031;-67
2022/10/23 07:25:36;;;;;;;7.97;3.20;;;18.20;99.90;;;;;;5092191;28;20131;-67
2022/10/23 07:28:06;;;;;;;8.07;3.35;;;18.20;99.90;;;;;;5092719;28;20103;-67
2022/10/23 07:30:31;;;;;;;8.18;3.60;;;18.30;99.90;;;;;;5092252;28;20039;-67
2022/10/23 07:32:57;;;;;;;10.02;3.60;;;18.40;99.90;;;;;;5092529;28;20047;-67
2022/10/23 07:35:23;;;;;;;9.07;3.63;;;18.40;99.90;;;;;;5090852;28;20024;-67
2022/10/23 07:37:48;;;;;;;8.10;3.47;;;18.50;99.90;;;;;;5092088;28;20355;-67
2022/10/23 07:40:16;;;;;;;10.30;3.28;;;18.50;99.90;;;;;;5091698;28;20131;-67
2022/10/23 07:42:42;;;;;;;8.60;3.38;;;18.50;99.90;;;;;;5091345;28;20048;-67
2022/10/23 07:45:08;;;;;;;7.18;3.53;;;18.60;99.90;;;;;;5092158;28;20434;-67
2022/10/23 07:47:34;;;;;;;8.10;3.42;;;18.60;99.90;;;;;;5092130;28;20089;-67
2022/10/23 07:50:00;;;;;;;8.10;3.20;;;18.60;99.90;;;;;;5092287;28;20482;-67
2022/10/23 07:52:25;;;;;;;11.55;3.88;;;18.60;99.90;;;;;;5092081;28;20085;-67
2022/10/23 07:54:51;;;;;;;10.85;3.20;;;18.60;99.90;;;;;;5092023;28;20387;-67
2022/10/23 07:57:18;;;;;;;5.68;2.90;;;18.60;99.90;;;;;;5091944;28;20032;-67
2022/10/23 07:59:43;;;;;;;7.10;3.00;;;18.70;99.90;;;;;;5092527;28;20054;-67
2022/10/23 08:02:14;;;;;;;7.35;3.40;;;18.80;99.90;;;;;;5092093;28;20055;-67
2022/10/23 08:04:40;;;;;;;9.20;3.42;;;18.70;99.90;;;;;;5091949;28;20027;-68
2022/10/23 08:07:05;;;;;;;9.60;3.13;;;18.70;99.90;;;;;;5091784;28;20390;-68
2022/10/23 08:09:33;;;;;;;9.70;3.33;;;18.60;99.90;;;;;;5091595;28;20052;-67
2022/10/23 08:11:59;;;;;;;8.05;3.13;;;18.70;99.90;;;;;;5091908;28;20043;-67
2022/10/23 08:14:25;;;;;;;9.32;3.03;;;18.60;99.90;;;;;;5092008;28;20020;-67
2022/10/23 08:16:51;;;;;;;7.95;3.20;;;18.90;99.90;;;;;;5091808;28;20576;-67
2022/10/23 08:19:17;;;;;;;6.57;2.70;;;18.60;99.90;;;;;;5091830;28;20017;-67
2022/10/23 08:21:43;;;;;;;6.78;3.05;;;18.60;99.90;;;;;;5091987;28;20025;-66
2022/10/23 08:24:12;;;;;;;10.20;3.08;;;18.90;99.90;;;;;;5094949;28;20024;-67
2022/10/23 08:26:38;;;;;;;8.02;3.05;;;19.00;99.90;;;;;;5095528;28;20509;-67
2022/10/23 08:29:04;;;;;;;8.13;2.60;;;18.90;99.90;;;;;;5095817;28;20032;-67
2022/10/23 08:31:30;;;;;;;7.28;2.80;;;19.10;99.90;;;;;;5095663;28;20032;-67
2022/10/23 08:33:55;;;;;;;9.32;2.60;;;19.20;99.90;;;;;;5095283;28;20020;-67
2022/10/23 08:36:24;;;;;;;8.27;2.58;;;19.20;99.90;;;;;;5095191;28;20474;-67
2022/10/23 08:38:52;;;;;;;9.70;2.85;;;19.40;99.90;;;;;;5095299;28;20032;-67
2022/10/23 08:41:32;;;;;;;7.53;2.67;;;19.70;99.90;;;;;;5095751;28;20036;-68
2022/10/23 08:44:10;;;;;;;10.23;2.70;;;19.50;99.90;;;;;;5095565;28;20024;-67
2022/10/23 08:47:02;;;;;;;7.05;2.75;;;19.60;99.90;;;;;;5095264;28;20055;-68
2022/10/23 08:49:50;;;;;;;7.00;2.30;;;19.60;99.90;;;;;;5089558;28;20032;-67
2022/10/23 08:52:35;;;;;;;7.10;2.40;;;19.80;99.90;;;;;;5094833;28;20077;-68
2022/10/23 08:55:22;;;;;;;10.18;2.60;;;19.90;99.90;;;;;;5095279;28;20026;-67
2022/10/23 08:58:06;;;;;;;8.85;2.70;;;20.00;99.90;;;;;;5095305;28;20031;-67
2022/10/23 09:00:33;;;;;;;12.90;2.90;;;20.10;99.90;;;;;;5095564;28;20031;-67
2022/10/23 09:03:03;;;;;;;8.20;2.60;;;20.10;99.90;;;;;;5095129;28;20030;-67
2022/10/23 09:05:35;;;;;;;7.30;2.58;;;20.30;99.90;;;;;;5094467;28;20028;-68
2022/10/23 09:08:39;;;;;;;5.95;2.47;;;20.20;99.90;;;;;;5094972;28;20440;-67
2022/10/23 09:11:21;;;;;;;9.73;2.88;;;20.30;99.90;;;;;;5094917;28;20047;-68
2022/10/23 09:14:12;;;;;;;11.82;2.40;;;20.40;99.90;;;;;;5095099;28;20439;-68
2022/10/23 09:16:50;;;;;;;10.18;2.60;;;20.40;99.90;;;;;;5094636;28;20443;-65
2022/10/23 09:19:18;;;;;;;5.88;2.60;;;20.60;99.90;;;;;;5094498;28;20024;-67
2022/10/23 09:21:48;;;;;;;7.78;2.67;;;20.60;99.90;;;;;;5094320;28;20032;-67
2022/10/23 09:24:16;;;;;;;7.38;2.38;;;20.60;99.90;;;;;;5094640;28;20044;-67
2022/10/23 09:26:48;;;;;;;10.15;2.90;;;20.50;99.90;;;;;;5094687;28;20028;-66
2022/10/23 09:29:25;;;;;;;9.75;2.65;;;20.60;99.90;;;;;;5094303;28;20103;-66
2022/10/23 09:31:56;;;;;;;8.07;2.50;;;20.60;99.90;;;;;;5093989;28;20036;-66
2022/10/23 09:34:25;;;;;;;8.15;2.72;;;20.70;99.90;;;;;;5092954;28;20489;-65
2022/10/23 09:36:54;;;;;;;7.20;2.40;;;20.80;99.90;;;;;;5094374;28;20498;-66
2022/10/23 09:39:33;;;;;;;7.03;2.13;;;20.70;99.90;;;;;;5094047;28;20040;-66
2022/10/23 09:42:03;;;;;;;13.65;2.35;;;20.90;99.90;;;;;;5094382;28;20032;-65
2022/10/23 09:44:31;;;;;;;6.35;2.33;;;20.70;99.90;;;;;;5092716;28;20122;-66
2022/10/23 09:47:12;;;;;;;8.73;2.20;;;20.90;99.90;;;;;;5090835;28;20030;-65
2022/10/23 09:49:45;;;;;;;12.15;3.22;;;20.80;99.90;;;;;;5092502;28;20043;-64
2022/10/23 09:52:10;;;;;;;7.32;3.15;;;20.90;99.90;;;;;;5093643;28;20062;-63
2022/10/23 09:54:43;;;;;;;9.70;2.70;;;21.00;99.90;;;;;;5094026;28;20032;-63
2022/10/23 09:57:30;;;;;;;6.57;2.13;;;21.00;99.90;;;;;;5093523;28;20028;-65
2022/10/23 10:00:03;;;;;;;9.00;2.85;;;21.10;99.90;;;;;;5093465;28;20023;-65
2022/10/23 10:02:35;;;;;;;9.48;2.92;;;21.30;99.90;;;;;;5093438;28;20035;-65
2022/10/23 10:05:29;;;;;;;10.57;2.80;;;21.30;99.90;;;;;;5093714;28;20043;-63
2022/10/23 10:07:57;;;;;;;;;;;21.40;99.90;;;;;;5093795;28;20016;-66
2022/10/23 10:10:27;;;;;;;9.73;2.58;;;21.40;99.90;;;;;;5093520;28;19912;-64
2022/10/23 10:13:00;;;;;;;9.23;3.30;;;21.40;99.90;;;;;;5093730;28;20028;-64
2022/10/23 10:15:39;;;;;;;8.63;2.45;;;21.40;99.90;;;;;;5093478;28;20442;-66
2022/10/23 10:18:40;;;;;;;6.53;2.88;;;21.30;99.90;;;;;;5092993;28;20032;-64
2022/10/23 10:21:27;;;;;;;9.07;3.20;;;21.30;99.90;;;;;;5070758;28;20059;-64
2022/10/23 10:24:10;;;;;;;7.25;2.25;;;21.40;99.90;;;;;;5070191;28;20561;-63
2022/10/23 10:27:01;;;;;;;5.68;2.00;;;21.90;99.90;;;;;;5070650;28;20024;-64
2022/10/23 10:29:58;;;;;;;5.82;1.90;;;22.20;99.90;;;;;;5070190;28;20120;-63
2022/10/23 10:32:42;;;;;;;8.82;2.35;;;22.50;99.90;;;;;;5062333;28;20463;-62
2022/10/23 10:35:18;;;;;;;4.82;1.70;;;22.40;99.90;;;;;;5070294;28;20032;-63
2022/10/23 10:38:01;;;;;;;5.68;1.80;;;22.80;99.90;;;;;;5070702;28;20048;-64
2022/10/23 10:41:06;;;;;;;7.45;1.80;;;23.20;99.90;;;;;;5069682;28;20044;-62
2022/10/23 10:43:45;;;;;;;4.80;1.48;;;23.30;99.90;;;;;;5050432;28;20112;-64
2022/10/23 10:46:17;;;;;;;4.75;1.85;;;23.10;99.90;;;;;;5049604;28;20492;-64
2022/10/23 10:48:55;;;;;;;6.75;1.80;;;23.20;99.90;;;;;;5050292;28;20494;-64
2022/10/23 10:51:31;;;;;;;6.55;1.92;;;23.40;99.90;;;;;;5050681;28;20489;-64
2022/10/23 10:54:17;;;;;;;5.43;1.50;;;23.50;99.90;;;;;;5033547;28;20025;-63
2022/10/23 10:56:46;;;;;;;7.10;1.77;;;23.50;99.90;;;;;;5054006;28;20037;-64
2022/10/23 10:59:14;;;;;;;5.40;1.60;;;23.80;99.90;;;;;;5072255;28;20099;-63
2022/10/23 11:02:00;;;;;;;4.80;1.38;;;23.60;99.90;;;;;;5072081;28;20024;-63
2022/10/23 11:04:47;;;;;;;8.20;1.60;;;23.70;99.90;;;;;;5072122;28;20062;-63
2022/10/23 11:07:17;;;;;;;5.47;1.45;;;24.00;99.90;;;;;;5072149;28;20150;-65
2022/10/23 11:09:44;;;;;;;4.47;1.55;;;23.80;99.90;;;;;;5072307;28;20479;-63
2022/10/23 11:12:22;;;;;;;4.10;1.63;;;23.80;99.90;;;;;;5071956;28;20024;-63
2022/10/23 11:14:49;;;;;;;5.38;1.80;;;24.00;99.90;;;;;;5071729;28;20051;-65
2022/10/23 11:17:23;;;;;;;6.13;2.05;;;24.10;99.90;;;;;;5071533;28;20024;-65
2022/10/23 11:20:09;;;;;;;5.25;1.95;;;24.40;99.90;;;;;;5071767;28;20039;-64
2022/10/23 11:22:48;;;;;;;6.45;1.63;;;24.60;99.90;;;;;;5069806;28;20071;-64
2022/10/23 11:25:27;;;;;;;3.20;1.50;;;24.80;99.90;;;;;;5053003;28;20033;-64
2022/10/23 11:28:15;;;;;;;4.60;1.50;;;25.20;99.90;;;;;;5069795;28;20120;-64
2022/10/23 11:30:53;;;;;;;4.78;1.98;;;25.10;99.90;;;;;;5068839;28;20040;-64
2022/10/23 11:33:52;;;;;;;5.05;1.52;;;25.10;99.90;;;;;;5068416;28;20037;-64
2022/10/23 11:36:31;;;;;;;4.63;1.75;;;25.20;99.90;;;;;;5069756;28;20402;-64
2022/10/23 11:39:15;;;;;;;2.67;1.40;;;25.30;99.90;;;;;;5069253;28;20051;-65
2022/10/23 11:41:52;;;;;;;3.97;1.60;;;25.80;99.90;;;;;;5069237;28;20035;-65
2022/10/23 11:44:27;;;;;;;3.42;1.58;;;26.00;99.90;;;;;;5069823;28;20028;-65
2022/10/23 11:47:23;;;;;;;5.88;1.70;;;26.00;99.90;;;;;;5069329;28;20040;-64
2022/10/23 11:49:49;;;;;;;6.57;1.90;;;26.30;99.90;;;;;;5061127;28;20041;-65
2022/10/23 11:52:23;;;;;;;3.35;1.40;;;26.40;99.90;;;;;;5069527;28;20111;-65
2022/10/23 11:55:03;;;;;;;4.82;1.48;;;25.80;99.90;;;;;;5069391;28;20036;-65
2022/10/23 11:57:29;;;;;;;4.75;1.30;;;25.80;99.90;;;;;;5077682;28;20518;-64
2022/10/23 11:59:56;;;;;;;4.65;1.30;;;25.90;99.90;;;;;;5094067;28;20032;-64
2022/10/23 12:02:30;;;;;;;5.10;1.15;;;25.50;99.90;;;;;;5096059;28;20494;-66
2022/10/23 12:05:00;;;;;;;5.10;1.23;;;25.60;99.90;;;;;;5095439;28;20024;-64
2022/10/23 12:07:37;;;;;;;2.13;1.10;;;25.50;99.90;;;;;;5095800;28;20103;-64
2022/10/23 12:10:25;;;;;;;3.50;1.10;;;25.80;99.90;;;;;;5095627;28;20020;-67
2022/10/23 12:12:57;;;;;;;7.07;1.35;;;25.80;99.90;;;;;;5096118;28;20024;-66
2022/10/23 12:15:24;;;;;;;3.78;1.27;;;25.50;99.90;;;;;;5095168;28;20027;-66
2022/10/23 12:17:53;;;;;;;4.57;1.27;;;25.60;99.90;;;;;;5095806;28;20036;-65
2022/10/23 12:20:34;;;;;;;3.47;0.98;;;25.20;99.90;;;;;;5095803;28;20038;-64
2022/10/23 12:22:59;;;;;;;3.55;1.17;;;25.40;99.90;;;;;;5095862;28;20489;-65
2022/10/23 12:25:40;;;;;;;2.75;1.38;;;25.40;99.90;;;;;;5095876;28;20024;-63
2022/10/23 12:28:11;;;;;;;4.82;1.17;;;25.10;99.90;;;;;;5096004;28;20566;-65
2022/10/23 12:30:46;;;;;;;4.18;1.20;;;25.40;99.90;;;;;;5095413;28;20042;-64
2022/10/23 12:33:28;;;;;;;8.82;1.23;;;25.20;99.90;;;;;;5095194;28;20055;-64
2022/10/23 12:36:05;;;;;;;5.07;1.30;;;25.60;99.90;;;;;;5095155;28;20028;-65
2022/10/23 12:38:32;;;;;;;4.63;1.10;;;25.80;99.90;;;;;;5095204;28;20116;-63
2022/10/23 12:41:10;;;;;;;3.30;1.17;;;25.40;99.90;;;;;;5095423;28;20044;-65
2022/10/23 12:43:37;;;;;;;2.75;1.23;;;25.50;99.90;;;;;;5094929;28;20016;-65
2022/10/23 12:46:26;;;;;;;1.98;0.95;;;25.70;99.90;;;;;;5095499;28;20371;-65
2022/10/23 12:48:53;;;;;;;2.20;0.95;;;25.60;99.90;;;;;;5074818;28;20056;-65
2022/10/23 12:51:24;;;;;;;5.22;1.20;;;25.60;99.90;;;;;;5075328;28;20032;-65
2022/10/23 12:53:50;;;;;;;3.65;1.05;;;25.50;99.90;;;;;;5074966;28;20406;-65
2022/10/23 12:56:17;;;;;;;4.20;1.00;;;25.30;99.90;;;;;;5074923;28;20032;-65
2022/10/23 12:59:00;;;;;;;5.15;0.98;;;25.30;99.90;;;;;;5074561;28;20013;-64
2022/10/23 13:01:33;;;;;;;3.38;1.00;;;25.40;99.90;;;;;;5074757;28;20077;-65
2022/10/23 13:04:11;;;;;;;2.85;1.15;;;25.20;99.90;;;;;;5074887;28;20048;-65
2022/10/23 13:06:38;;;;;;;3.58;0.93;;;25.20;99.90;;;;;;5074808;28;20509;-65